Time;durP1;ratioP1;P1;durP2;ratioP2;P2;SDS_P1;SDS_P2;PMS_P1;PMS_P2;Temp;Humidity;BMP_temperature;BMP_pressure;BME280_temperature;BME280_humidity;BME280_pressure;Samples;Min_cycle;Max_cycle;Signal;HPM_P1;HPM_P2
2021/04/07 00:00:17;;;;;;;2.43;1.07;;;2.90;64.20;;;;;;6244434;23;20015;-77
2021/04/07 00:02:44;;;;;;;2.00;0.83;;;3.10;64.10;;;;;;6243162;23;20000;-77
2021/04/07 00:05:12;;;;;;;5.03;1.03;;;3.10;64.00;;;;;;6245549;23;20408;-77
2021/04/07 00:07:38;;;;;;;1.43;0.80;;;2.80;64.70;;;;;;6244957;23;19992;-77
2021/04/07 00:10:07;;;;;;;1.30;0.70;;;2.90;64.90;;;;;;6243714;23;20005;-77
2021/04/07 00:12:33;;;;;;;1.53;1.00;;;2.90;64.80;;;;;;6243183;23;20004;-76
2021/04/07 00:14:59;;;;;;;0.97;0.70;;;2.90;64.70;;;;;;6243911;23;20043;-77
2021/04/07 00:17:25;;;;;;;2.37;0.87;;;2.90;64.70;;;;;;6243846;23;20023;-77
2021/04/07 00:19:50;;;;;;;1.43;0.67;;;2.90;64.70;;;;;;6243360;23;20008;-77
2021/04/07 00:22:16;;;;;;;2.07;0.90;;;2.90;64.80;;;;;;6243767;23;20328;-77
2021/04/07 00:24:42;;;;;;;1.83;0.73;;;2.90;64.90;;;;;;6244851;23;20020;-77
2021/04/07 00:27:11;;;;;;;1.60;0.80;;;2.90;64.80;;;;;;6243878;23;20066;-77
2021/04/07 00:29:37;;;;;;;2.70;0.80;;;2.80;65.10;;;;;;6244646;23;20000;-77
2021/04/07 00:32:03;;;;;;;2.67;1.10;;;2.90;65.00;;;;;;6243694;23;20387;-77
2021/04/07 00:34:29;;;;;;;4.33;0.77;;;2.80;64.90;;;;;;6269699;22;20007;-77
2021/04/07 00:36:54;;;;;;;1.67;0.87;;;2.80;65.20;;;;;;6267955;22;20016;-77
2021/04/07 00:39:20;;;;;;;2.50;0.90;;;2.90;65.00;;;;;;6245466;23;20051;-77
2021/04/07 00:41:46;;;;;;;1.23;0.70;;;2.80;65.20;;;;;;6269011;22;20031;-78
2021/04/07 00:44:11;;;;;;;4.20;1.03;;;2.80;65.40;;;;;;6245051;23;20499;-78
2021/04/07 00:46:38;;;;;;;2.10;0.80;;;2.80;65.50;;;;;;6243437;23;20018;-78
2021/04/07 00:49:04;;;;;;;0.80;0.80;;;2.80;65.50;;;;;;6244183;23;20000;-77
2021/04/07 00:51:30;;;;;;;0.70;0.67;;;2.80;65.30;;;;;;6245029;23;20051;-78
2021/04/07 00:53:56;;;;;;;1.50;0.80;;;2.80;65.40;;;;;;6244092;23;20087;-76
2021/04/07 00:56:21;;;;;;;4.23;0.93;;;2.70;65.80;;;;;;6243639;23;20031;-77
2021/04/07 00:58:47;;;;;;;2.03;0.80;;;2.70;65.90;;;;;;6244652;23;20180;-77
2021/04/07 01:01:14;;;;;;;3.67;0.93;;;2.80;65.60;;;;;;6245064;23;20003;-77
2021/04/07 01:03:39;;;;;;;3.10;0.93;;;2.80;65.20;;;;;;6242863;23;20067;-77
2021/04/07 01:06:05;;;;;;;1.73;0.80;;;2.80;65.50;;;;;;6243864;23;20015;-77
2021/04/07 01:08:31;;;;;;;1.80;0.87;;;2.80;65.80;;;;;;6243600;23;20065;-77
2021/04/07 01:10:56;;;;;;;5.03;1.40;;;2.80;65.90;;;;;;6246796;23;20327;-77
2021/04/07 01:13:22;;;;;;;1.70;1.00;;;2.90;65.80;;;;;;6245692;23;20063;-77
2021/04/07 01:15:48;;;;;;;3.90;1.03;;;2.90;65.80;;;;;;6245012;23;20016;-77
2021/04/07 01:18:13;;;;;;;1.63;1.10;;;2.90;65.70;;;;;;6245562;23;20005;-77
2021/04/07 01:20:39;;;;;;;4.17;1.20;;;2.80;65.70;;;;;;6244578;23;20487;-77
2021/04/07 01:23:05;;;;;;;3.97;1.73;;;2.80;66.40;;;;;;6246947;23;20424;-77
2021/04/07 01:25:31;;;;;;;1.83;1.20;;;2.80;66.20;;;;;;6246566;22;20027;-77
2021/04/07 01:27:57;;;;;;;3.60;1.40;;;2.50;66.80;;;;;;6246769;23;20415;-78
2021/04/07 01:30:23;;;;;;;2.37;1.10;;;2.60;67.10;;;;;;6271114;22;20004;-77
2021/04/07 01:32:49;;;;;;;2.23;1.37;;;2.60;67.10;;;;;;6244650;23;20004;-77
2021/04/07 01:35:18;;;;;;;3.70;1.40;;;2.60;67.10;;;;;;6245475;23;20016;-77
2021/04/07 01:37:44;;;;;;;6.67;1.30;;;2.60;67.40;;;;;;6246463;22;20023;-77
2021/04/07 01:40:12;;;;;;;2.53;1.30;;;2.60;67.70;;;;;;6245244;23;20019;-77
2021/04/07 01:42:41;;;;;;;4.27;1.27;;;2.60;67.60;;;;;;6244418;23;20059;-77
2021/04/07 01:45:08;;;;;;;3.63;1.77;;;2.50;67.90;;;;;;6245522;23;20083;-77
2021/04/07 01:47:34;;;;;;;2.77;1.83;;;2.30;68.70;;;;;;6245195;23;20334;-78
2021/04/07 01:50:03;;;;;;;2.93;1.50;;;2.40;69.00;;;;;;6245532;23;20066;-77
2021/04/07 01:52:29;;;;;;;4.17;1.50;;;2.50;68.80;;;;;;6271413;22;20004;-77
2021/04/07 01:54:56;;;;;;;1.80;1.50;;;2.50;68.60;;;;;;6246655;23;20473;-77
2021/04/07 01:57:22;;;;;;;5.73;1.80;;;2.50;68.60;;;;;;6245324;23;20016;-77
2021/04/07 01:59:48;;;;;;;2.97;1.40;;;2.50;68.70;;;;;;6245084;23;20323;-77
2021/04/07 02:02:14;;;;;;;2.80;1.50;;;2.50;68.70;;;;;;6246983;23;20433;-78
2021/04/07 02:04:41;;;;;;;2.83;1.57;;;2.50;68.80;;;;;;6244943;23;20004;-78
2021/04/07 02:07:14;;;;;;;2.80;1.60;;;2.40;69.00;;;;;;6247031;23;20024;-77
2021/04/07 02:09:41;;;;;;;1.60;1.47;;;2.50;69.10;;;;;;6244908;23;20000;-77
2021/04/07 02:12:07;;;;;;;1.83;1.27;;;2.30;69.20;;;;;;6245644;23;20442;-77
2021/04/07 02:14:33;;;;;;;2.37;1.33;;;2.20;69.70;;;;;;6270218;22;20008;-78
2021/04/07 02:17:01;;;;;;;4.20;1.57;;;2.30;69.20;;;;;;6246464;23;20015;-77
2021/04/07 02:19:28;;;;;;;2.73;1.27;;;2.30;69.00;;;;;;6245205;23;20007;-77
2021/04/07 02:22:05;;;;;;;5.03;1.57;;;2.40;69.00;;;;;;6245149;23;20051;-77
2021/04/07 02:24:31;;;;;;;2.73;1.50;;;2.30;69.40;;;;;;6244590;23;20094;-77
2021/04/07 02:26:56;;;;;;;3.17;1.50;;;2.30;69.30;;;;;;6270340;22;20035;-77
2021/04/07 02:29:22;;;;;;;5.30;1.40;;;2.40;69.10;;;;;;6270507;22;20056;-77
2021/04/07 02:31:48;;;;;;;3.83;1.50;;;2.40;69.00;;;;;;6245910;23;20083;-77
2021/04/07 02:34:14;;;;;;;4.30;1.00;;;2.40;69.00;;;;;;6245059;23;20035;-77
2021/04/07 02:36:40;;;;;;;2.20;1.13;;;2.30;68.70;;;;;;6269556;22;20008;-78
2021/04/07 02:39:06;;;;;;;3.50;1.20;;;2.40;68.50;;;;;;6245138;23;20011;-78
2021/04/07 02:41:32;;;;;;;2.23;1.07;;;2.30;68.70;;;;;;6245615;23;20019;-78
2021/04/07 02:43:58;;;;;;;3.40;1.50;;;2.40;68.50;;;;;;6244550;23;20010;-77
2021/04/07 02:46:24;;;;;;;3.33;1.30;;;2.40;68.50;;;;;;6270240;22;20099;-78
2021/04/07 02:48:49;;;;;;;1.33;1.10;;;2.50;68.40;;;;;;6244114;23;20012;-77
2021/04/07 02:51:15;;;;;;;2.73;1.47;;;2.50;68.20;;;;;;6270153;22;20004;-77
2021/04/07 02:53:41;;;;;;;2.20;1.23;;;2.50;68.10;;;;;;6244002;23;20007;-77
2021/04/07 02:56:06;;;;;;;3.20;1.33;;;2.50;68.00;;;;;;6244983;23;20016;-77
2021/04/07 02:58:32;;;;;;;1.67;1.10;;;2.50;68.30;;;;;;6244151;23;20079;-78
2021/04/07 03:00:59;;;;;;;2.80;1.30;;;2.50;68.10;;;;;;6245215;23;20072;-77
2021/04/07 03:03:24;;;;;;;3.70;1.43;;;2.50;68.10;;;;;;6244695;23;20004;-77
2021/04/07 03:05:50;;;;;;;2.23;1.23;;;2.50;68.10;;;;;;6244226;23;20119;-78
2021/04/07 03:08:15;;;;;;;1.60;1.10;;;2.60;68.00;;;;;;6244373;23;20035;-77
2021/04/07 03:10:41;;;;;;;2.33;1.03;;;2.50;68.10;;;;;;6243748;23;20431;-78
2021/04/07 03:13:07;;;;;;;4.30;1.00;;;2.50;68.40;;;;;;6244611;23;20099;-78
2021/04/07 03:15:32;;;;;;;2.63;0.97;;;2.50;68.10;;;;;;6245604;23;20000;-79
2021/04/07 03:17:58;;;;;;;2.63;1.33;;;2.60;68.00;;;;;;6246332;23;20364;-77
2021/04/07 03:20:24;;;;;;;4.10;1.00;;;2.50;68.00;;;;;;6270343;22;20308;-77
2021/04/07 03:22:49;;;;;;;3.03;1.10;;;2.50;68.20;;;;;;6269274;22;20375;-77
2021/04/07 03:25:15;;;;;;;1.63;1.00;;;2.50;68.00;;;;;;6269766;22;20020;-78
2021/04/07 03:27:41;;;;;;;1.83;1.20;;;2.50;67.90;;;;;;6244165;23;20323;-78
2021/04/07 03:30:07;;;;;;;1.73;1.10;;;2.50;67.90;;;;;;6270670;22;20327;-77
2021/04/07 03:32:33;;;;;;;2.27;1.20;;;2.60;68.00;;;;;;6244208;23;20034;-78
2021/04/07 03:34:59;;;;;;;3.23;1.40;;;2.60;68.00;;;;;;6244491;23;20323;-78
2021/04/07 03:37:25;;;;;;;2.93;1.00;;;2.50;67.70;;;;;;6245829;23;20420;-79
2021/04/07 03:39:51;;;;;;;3.63;1.07;;;2.60;67.70;;;;;;6245077;22;19996;-78
2021/04/07 03:42:17;;;;;;;2.27;1.10;;;2.50;67.40;;;;;;6244502;23;20138;-78
2021/04/07 03:44:42;;;;;;;2.47;1.07;;;2.60;67.30;;;;;;6243691;23;20036;-78
2021/04/07 03:47:08;;;;;;;2.43;1.40;;;2.50;67.40;;;;;;6244153;23;20015;-77
2021/04/07 03:49:34;;;;;;;1.97;1.20;;;2.50;67.20;;;;;;6243748;23;20011;-78
2021/04/07 03:52:00;;;;;;;2.30;0.93;;;2.60;67.00;;;;;;6245321;23;20087;-77
2021/04/07 03:54:26;;;;;;;1.83;0.90;;;2.60;66.70;;;;;;6244409;23;20008;-78
2021/04/07 03:56:52;;;;;;;1.63;1.10;;;2.50;66.50;;;;;;6243323;23;20515;-78
2021/04/07 03:59:17;;;;;;;2.93;1.40;;;2.40;66.70;;;;;;6244281;23;20040;-77
2021/04/07 04:01:43;;;;;;;3.93;1.33;;;2.40;67.20;;;;;;6268816;22;20078;-77
2021/04/07 04:04:10;;;;;;;1.57;1.00;;;2.40;67.20;;;;;;6245533;23;20378;-78
2021/04/07 04:06:36;;;;;;;1.87;1.30;;;2.40;67.30;;;;;;6245453;23;20131;-78
2021/04/07 04:09:03;;;;;;;3.83;1.20;;;2.40;67.50;;;;;;6245830;23;20000;-78
2021/04/07 04:11:29;;;;;;;3.40;1.00;;;2.30;67.30;;;;;;6244456;23;20411;-78
2021/04/07 04:13:55;;;;;;;4.57;1.03;;;2.40;67.20;;;;;;6243713;23;20071;-78
2021/04/07 04:16:21;;;;;;;2.60;1.30;;;2.30;67.90;;;;;;6244072;23;20027;-78
2021/04/07 04:18:49;;;;;;;3.17;1.13;;;2.30;67.70;;;;;;6244198;23;20008;-77
2021/04/07 04:21:15;;;;;;;2.60;1.33;;;2.30;67.30;;;;;;6245934;23;20023;-78
2021/04/07 04:23:41;;;;;;;2.70;1.20;;;2.30;67.10;;;;;;6244824;23;20436;-78
2021/04/07 04:26:06;;;;;;;2.70;1.33;;;2.30;66.90;;;;;;6244753;23;20004;-79
2021/04/07 04:28:32;;;;;;;3.67;1.40;;;2.20;67.40;;;;;;6270043;22;20004;-78
2021/04/07 04:30:57;;;;;;;3.10;1.30;;;2.20;67.60;;;;;;6245356;23;19996;-79
2021/04/07 04:33:23;;;;;;;2.03;1.40;;;2.20;67.70;;;;;;6244315;23;20106;-78
2021/04/07 04:35:49;;;;;;;2.77;1.10;;;2.30;67.50;;;;;;6245077;23;20079;-78
2021/04/07 04:38:16;;;;;;;3.83;1.50;;;2.30;67.60;;;;;;6269924;22;20004;-78
2021/04/07 04:40:42;;;;;;;2.03;1.10;;;2.30;67.30;;;;;;6244867;23;20427;-78
2021/04/07 04:43:08;;;;;;;3.53;1.67;;;2.30;67.30;;;;;;6245468;22;20011;-78
2021/04/07 04:45:34;;;;;;;4.53;1.63;;;2.30;67.20;;;;;;6246365;23;20012;-78
2021/04/07 04:48:00;;;;;;;2.90;1.50;;;2.30;67.20;;;;;;6244954;23;20000;-77
2021/04/07 04:50:25;;;;;;;3.17;1.47;;;2.30;67.20;;;;;;6246307;23;20134;-77
2021/04/07 04:52:51;;;;;;;4.20;1.83;;;2.30;67.20;;;;;;6246715;23;19999;-77
2021/04/07 04:55:16;;;;;;;5.40;1.60;;;2.20;67.00;;;;;;6246084;23;20000;-78
2021/04/07 04:57:42;;;;;;;2.17;1.23;;;2.30;67.30;;;;;;6245331;23;20447;-78
2021/04/07 05:00:08;;;;;;;2.50;1.60;;;2.20;67.20;;;;;;6271456;22;20004;-78
2021/04/07 05:02:34;;;;;;;3.43;1.30;;;2.20;67.50;;;;;;6246178;23;20033;-78
2021/04/07 05:05:00;;;;;;;5.70;1.63;;;2.20;67.60;;;;;;6245088;23;20004;-77
2021/04/07 05:07:26;;;;;;;7.10;1.70;;;2.20;67.20;;;;;;6271180;22;20330;-79
2021/04/07 05:09:51;;;;;;;1.63;1.40;;;2.10;67.20;;;;;;6245374;23;20004;-79
2021/04/07 05:12:17;;;;;;;4.73;1.60;;;2.20;66.90;;;;;;6247192;23;20007;-78
2021/04/07 05:14:45;;;;;;;5.03;2.23;;;2.10;66.70;;;;;;6244949;23;20462;-79
2021/04/07 05:17:10;;;;;;;1.80;1.20;;;2.10;66.80;;;;;;6247250;23;20008;-79
2021/04/07 05:19:36;;;;;;;2.10;1.60;;;2.10;66.90;;;;;;6246128;23;20086;-79
2021/04/07 05:22:01;;;;;;;5.27;1.50;;;2.10;67.00;;;;;;6271022;22;20401;-79
2021/04/07 05:24:27;;;;;;;2.43;1.10;;;2.10;66.50;;;;;;6246772;23;20032;-79
2021/04/07 05:26:52;;;;;;;3.33;1.50;;;2.10;66.70;;;;;;6246782;23;20004;-79
2021/04/07 05:29:18;;;;;;;5.03;1.50;;;2.10;66.90;;;;;;6245974;23;20004;-79
2021/04/07 05:31:45;;;;;;;5.83;1.57;;;2.10;66.50;;;;;;6271210;22;20000;-79
2021/04/07 05:34:11;;;;;;;2.90;1.43;;;2.10;66.50;;;;;;6271342;22;20079;-78
2021/04/07 05:36:36;;;;;;;2.80;1.40;;;2.20;66.30;;;;;;6270893;22;20068;-78
2021/04/07 05:39:02;;;;;;;5.60;1.70;;;2.20;66.50;;;;;;6245091;23;20016;-78
2021/04/07 05:41:28;;;;;;;3.93;1.60;;;2.20;66.40;;;;;;6245681;23;20001;-79
2021/04/07 05:43:55;;;;;;;3.40;1.50;;;2.10;66.70;;;;;;6244918;23;20016;-79
2021/04/07 05:46:20;;;;;;;3.50;1.40;;;2.10;66.60;;;;;;6245746;23;20015;-79
2021/04/07 05:48:46;;;;;;;2.77;1.43;;;2.10;66.70;;;;;;6270644;22;20139;-78
2021/04/07 05:51:12;;;;;;;6.33;1.57;;;2.10;66.30;;;;;;6245958;23;20005;-78
2021/04/07 05:53:38;;;;;;;1.93;1.07;;;2.10;66.70;;;;;;6245411;23;20431;-78
2021/04/07 05:56:04;;;;;;;5.00;1.60;;;2.10;66.60;;;;;;6244799;23;20032;-78
2021/04/07 05:58:29;;;;;;;2.00;1.10;;;2.10;66.60;;;;;;6245539;23;20331;-79
2021/04/07 06:00:55;;;;;;;2.10;1.27;;;2.10;66.30;;;;;;6244437;23;20446;-79
2021/04/07 06:03:21;;;;;;;1.97;1.00;;;2.10;66.40;;;;;;6246817;23;19996;-79
2021/04/07 06:05:49;;;;;;;7.37;1.53;;;2.20;66.20;;;;;;6245978;23;20000;-79
2021/04/07 06:08:15;;;;;;;2.53;1.17;;;2.20;66.40;;;;;;6245347;23;20011;-79
2021/04/07 06:10:42;;;;;;;2.13;1.17;;;2.20;65.90;;;;;;6245426;23;20015;-79
2021/04/07 06:13:10;;;;;;;1.53;1.00;;;2.20;65.90;;;;;;6245069;23;20042;-79
2021/04/07 06:15:37;;;;;;;2.27;1.23;;;2.30;65.90;;;;;;6245163;23;20091;-79
2021/04/07 06:18:05;;;;;;;3.63;1.50;;;2.30;65.30;;;;;;6245004;23;20015;-79
2021/04/07 06:20:37;;;;;;;5.10;1.30;;;2.40;65.60;;;;;;6245161;23;20000;-78
2021/04/07 06:23:05;;;;;;;2.75;1.25;;;2.40;65.30;;;;;;6244078;23;20163;-79
2021/04/07 06:25:32;;;;;;;2.80;1.10;;;2.50;65.00;;;;;;6246250;22;20343;-79
2021/04/07 06:28:00;;;;;;;9.13;1.57;;;2.50;64.10;;;;;;6219285;23;20012;-80
2021/04/07 06:33:27;;;;;;;1.90;1.07;;;2.70;63.90;;;;;;6179724;23;20008;-77
2021/04/07 06:35:59;;;;;;;4.93;1.20;;;2.60;63.90;;;;;;6245000;23;20481;-80
2021/04/07 06:38:26;;;;;;;4.75;1.15;;;2.60;63.40;;;;;;6246581;23;20012;-79
2021/04/07 06:40:53;;;;;;;2.20;1.10;;;2.60;63.80;;;;;;6246345;23;20004;-81
2021/04/07 06:43:22;;;;;;;4.07;1.10;;;2.70;64.20;;;;;;6219283;23;19996;-80
2021/04/07 06:45:48;;;;;;;2.23;1.10;;;2.80;63.80;;;;;;6246096;23;20008;-81
2021/04/07 06:48:15;;;;;;;4.37;1.40;;;2.80;64.00;;;;;;6219761;23;20012;-79
2021/04/07 06:50:42;;;;;;;2.30;1.03;;;2.80;63.80;;;;;;6242630;23;19996;-78
2021/04/07 06:53:09;;;;;;;5.17;1.50;;;2.90;63.10;;;;;;6218322;23;20058;-78
2021/04/07 06:55:36;;;;;;;1.77;0.80;;;2.90;63.50;;;;;;6218739;23;20095;-77
2021/04/07 06:58:04;;;;;;;2.67;1.23;;;2.90;62.40;;;;;;6244540;23;20000;-77
2021/04/07 07:00:30;;;;;;;4.60;1.20;;;2.90;62.10;;;;;;6218686;23;20339;-79
2021/04/07 07:03:07;;;;;;;5.57;1.40;;;2.90;62.80;;;;;;6243682;23;20004;-79
2021/04/07 07:05:36;;;;;;;5.50;1.60;;;2.90;62.50;;;;;;6244337;23;20035;-79
2021/04/07 07:08:10;;;;;;;4.37;1.00;;;2.90;62.90;;;;;;6218231;23;20414;-81
2021/04/07 07:10:38;;;;;;;3.90;1.33;;;3.00;62.80;;;;;;6219388;23;20008;-82
2021/04/07 07:13:05;;;;;;;2.60;1.40;;;3.00;62.60;;;;;;6245183;23;20079;-81
2021/04/07 07:15:32;;;;;;;5.47;1.17;;;3.00;62.80;;;;;;6243363;23;20008;-80
2021/04/07 07:17:57;;;;;;;3.17;1.10;;;3.00;62.80;;;;;;6245363;23;20003;-81
2021/04/07 07:20:28;;;;;;;4.13;1.10;;;3.00;62.80;;;;;;6218731;23;20008;-79
2021/04/07 07:22:54;;;;;;;2.47;1.20;;;3.00;63.20;;;;;;6245638;23;20000;-80
2021/04/07 07:25:20;;;;;;;3.03;1.30;;;2.90;62.80;;;;;;6241154;23;20103;-79
2021/04/07 07:27:46;;;;;;;2.23;1.30;;;3.00;63.10;;;;;;6243852;23;20010;-77
2021/04/07 07:30:14;;;;;;;2.50;1.13;;;3.00;62.80;;;;;;6269420;22;20034;-80
2021/04/07 07:32:41;;;;;;;4.80;1.37;;;3.10;62.30;;;;;;6245450;23;20020;-79
2021/04/07 07:35:13;;;;;;;4.87;1.20;;;3.10;62.20;;;;;;6243706;23;20047;-78
2021/04/07 07:37:40;;;;;;;5.77;2.53;;;3.10;62.20;;;;;;6267984;22;20439;-79
2021/04/07 07:40:16;;;;;;;3.63;1.50;;;3.20;62.10;;;;;;6242399;23;20560;-79
2021/04/07 07:42:43;;;;;;;3.10;1.77;;;3.20;62.10;;;;;;6213613;23;20091;-79
2021/04/07 07:45:09;;;;;;;2.37;1.50;;;3.10;63.30;;;;;;6233340;23;20087;-78
2021/04/07 07:47:40;;;;;;;4.47;1.73;;;3.10;62.50;;;;;;6245078;23;19999;-79
2021/04/07 07:50:09;;;;;;;4.15;1.67;;;3.10;63.10;;;;;;6268672;22;20359;-78
2021/04/07 07:52:37;;;;;;;3.53;1.60;;;3.10;63.20;;;;;;6243988;23;20000;-78
2021/04/07 07:55:18;;;;;;;4.30;1.50;;;3.00;62.80;;;;;;6244792;23;19996;-78
2021/04/07 07:57:55;;;;;;;3.67;1.80;;;3.10;63.10;;;;;;6244845;22;20007;-77
2021/04/07 08:00:23;;;;;;;4.43;2.13;;;3.10;62.60;;;;;;6244402;23;19998;-75
2021/04/07 08:02:48;;;;;;;4.60;1.60;;;3.00;63.10;;;;;;6244089;23;19992;-78
2021/04/07 08:05:18;;;;;;;4.00;1.70;;;3.10;62.80;;;;;;6243865;23;20007;-80
2021/04/07 08:07:45;;;;;;;4.57;1.47;;;3.00;62.60;;;;;;6244131;23;20011;-79
2021/04/07 08:10:12;;;;;;;4.53;1.77;;;3.10;63.40;;;;;;6241845;23;20043;-79
2021/04/07 08:12:40;;;;;;;5.43;2.13;;;3.10;63.10;;;;;;6268348;22;20004;-76
2021/04/07 08:15:10;;;;;;;3.73;1.90;;;3.10;63.50;;;;;;6242421;23;20309;-78
2021/04/07 08:17:37;;;;;;;4.50;1.93;;;3.10;64.00;;;;;;6244568;23;20435;-81
2021/04/07 08:20:04;;;;;;;3.90;2.10;;;3.00;64.40;;;;;;6243000;23;19996;-79
2021/04/07 08:22:36;;;;;;;4.27;1.87;;;3.00;64.60;;;;;;6269279;22;20005;-79
2021/04/07 08:25:03;;;;;;;3.85;1.83;;;3.10;64.20;;;;;;6243092;23;20023;-81
2021/04/07 08:27:30;;;;;;;3.53;1.67;;;3.30;64.00;;;;;;6245005;22;20083;-80
2021/04/07 08:29:55;;;;;;;4.60;2.20;;;3.30;63.40;;;;;;6243098;23;20004;-81
2021/04/07 08:32:22;;;;;;;4.07;2.10;;;3.30;63.10;;;;;;6245466;23;20050;-79
2021/04/07 08:34:49;;;;;;;4.57;1.93;;;3.40;62.90;;;;;;6243091;23;20001;-79
2021/04/07 08:37:33;;;;;;;5.50;2.30;;;3.60;63.00;;;;;;6242914;23;20027;-78
2021/04/07 08:40:11;;;;;;;4.70;2.07;;;3.70;62.60;;;;;;6244156;23;19996;-80
2021/04/07 08:42:39;;;;;;;4.20;1.93;;;3.70;61.90;;;;;;6243038;23;20000;-77
2021/04/07 08:45:09;;;;;;;4.27;2.17;;;3.60;61.60;;;;;;6242602;23;20459;-77
2021/04/07 08:47:43;;;;;;;3.60;2.03;;;3.60;61.80;;;;;;6243202;23;20465;-77
2021/04/07 08:50:10;;;;;;;6.23;2.00;;;3.70;61.80;;;;;;6242236;23;20012;-75
2021/04/07 08:52:50;;;;;;;3.17;1.77;;;3.70;61.80;;;;;;6243080;23;20036;-75
2021/04/07 08:55:20;;;;;;;4.43;2.13;;;3.70;61.80;;;;;;6268449;22;20004;-75
2021/04/07 08:58:03;;;;;;;3.90;1.90;;;3.70;61.90;;;;;;6242858;23;20016;-75
2021/04/07 09:00:32;;;;;;;6.37;2.00;;;3.80;62.20;;;;;;6243167;23;19997;-75
2021/04/07 09:03:07;;;;;;;3.83;1.80;;;3.90;61.70;;;;;;6241876;23;20004;-75
2021/04/07 09:05:43;;;;;;;5.43;1.70;;;3.90;60.60;;;;;;6242874;23;20012;-75
2021/04/07 09:08:08;;;;;;;3.67;1.70;;;3.90;60.00;;;;;;6241967;23;20050;-74
2021/04/07 09:10:49;;;;;;;3.90;1.70;;;3.80;59.70;;;;;;6244252;23;20315;-77
2021/04/07 09:13:19;;;;;;;4.43;1.70;;;3.80;59.20;;;;;;6244121;23;20004;-75
2021/04/07 09:16:03;;;;;;;2.37;1.60;;;3.80;59.10;;;;;;6242603;23;20012;-76
2021/04/07 09:18:46;;;;;;;5.57;1.50;;;3.80;59.80;;;;;;6242849;23;20026;-77
2021/04/07 09:21:20;;;;;;;6.13;1.73;;;3.80;59.30;;;;;;6244415;23;20046;-77
2021/04/07 09:23:55;;;;;;;4.77;1.73;;;3.60;59.60;;;;;;6242373;23;20420;-74
2021/04/07 09:26:24;;;;;;;5.13;1.27;;;3.60;60.00;;;;;;6242599;23;20020;-75
2021/04/07 09:28:52;;;;;;;2.60;1.27;;;3.50;59.70;;;;;;6243038;23;20008;-74
2021/04/07 09:31:35;;;;;;;4.50;1.60;;;3.50;60.10;;;;;;6244059;23;20323;-74
2021/04/07 09:34:04;;;;;;;4.60;1.67;;;3.50;60.20;;;;;;6269461;22;20034;-75
2021/04/07 09:36:35;;;;;;;3.47;1.00;;;3.50;60.00;;;;;;6243739;23;20005;-75
2021/04/07 09:39:04;;;;;;;3.13;1.27;;;3.50;59.60;;;;;;6245712;23;20094;-76
2021/04/07 09:41:34;;;;;;;5.40;1.33;;;3.50;59.30;;;;;;6246397;23;20023;-76
2021/04/07 09:44:01;;;;;;;6.33;1.50;;;3.60;59.50;;;;;;6236878;23;20008;-77
2021/04/07 09:46:27;;;;;;;4.60;1.30;;;3.80;59.00;;;;;;6244696;23;20008;-75
2021/04/07 09:48:54;;;;;;;3.17;0.97;;;3.90;58.40;;;;;;6243882;23;20008;-77
2021/04/07 09:51:55;;;;;;;3.67;1.10;;;3.90;58.10;;;;;;6244809;23;20401;-77
2021/04/07 09:54:40;;;;;;;4.93;1.33;;;4.00;58.00;;;;;;6152422;23;20006;-76
2021/04/07 09:57:13;;;;;;;4.33;1.33;;;4.00;57.70;;;;;;6234053;23;20020;-75
2021/04/07 09:59:46;;;;;;;2.60;1.10;;;4.00;57.70;;;;;;6244754;23;20008;-78
2021/04/07 10:02:22;;;;;;;3.03;1.30;;;4.10;57.90;;;;;;6244471;23;20095;-77
2021/04/07 10:04:48;;;;;;;3.33;1.20;;;4.00;58.00;;;;;;6244254;23;20004;-76
2021/04/07 10:07:17;;;;;;;4.13;1.30;;;3.90;57.50;;;;;;6243378;23;20518;-77
2021/04/07 10:09:48;;;;;;;2.90;1.00;;;4.00;58.20;;;;;;6245742;23;20000;-75
2021/04/07 10:12:15;;;;;;;4.67;1.20;;;4.00;57.50;;;;;;6242360;23;20397;-75
2021/04/07 10:14:47;;;;;;;3.57;1.23;;;4.10;57.90;;;;;;6243680;23;20012;-79
2021/04/07 10:17:25;;;;;;;2.63;1.20;;;4.30;57.50;;;;;;6243545;23;20008;-77
2021/04/07 10:19:50;;;;;;;4.23;1.17;;;4.40;57.00;;;;;;6243954;23;20503;-78
2021/04/07 10:22:25;;;;;;;5.63;1.63;;;4.50;57.10;;;;;;6243688;23;20024;-75
2021/04/07 10:24:56;;;;;;;4.70;1.40;;;4.50;56.80;;;;;;6243291;23;20012;-75
2021/04/07 10:27:24;;;;;;;2.83;1.07;;;4.50;57.30;;;;;;6269905;22;20019;-78
2021/04/07 10:30:06;;;;;;;5.43;1.30;;;4.60;57.20;;;;;;6245833;23;20076;-76
2021/04/07 10:32:42;;;;;;;3.30;1.30;;;4.70;56.40;;;;;;6246501;23;20003;-78
2021/04/07 10:35:18;;;;;;;4.43;1.33;;;4.90;56.40;;;;;;6243287;23;20000;-78
2021/04/07 10:38:11;;;;;;;4.87;1.37;;;5.00;56.30;;;;;;6245852;23;20036;-76
2021/04/07 10:40:40;;;;;;;3.87;1.37;;;5.00;55.20;;;;;;6239234;23;20000;-77
2021/04/07 10:43:16;;;;;;;4.50;1.23;;;5.10;54.50;;;;;;6243137;23;20008;-77
2021/04/07 10:46:06;;;;;;;1.90;0.90;;;4.90;53.60;;;;;;6244346;23;20008;-78
2021/04/07 10:48:32;;;;;;;2.63;1.10;;;5.00;53.70;;;;;;6245754;22;20011;-78
2021/04/07 10:50:58;;;;;;;7.60;1.13;;;5.10;54.20;;;;;;6243372;23;20082;-78
2021/04/07 10:53:38;;;;;;;4.60;1.13;;;5.00;54.90;;;;;;6243323;22;20095;-77
2021/04/07 10:56:18;;;;;;;3.97;1.03;;;5.00;55.00;;;;;;6268377;22;20008;-75
2021/04/07 10:58:44;;;;;;;4.93;1.07;;;4.80;55.00;;;;;;6245863;23;20000;-74
2021/04/07 11:01:10;;;;;;;6.03;1.17;;;4.80;55.10;;;;;;6243078;23;20008;-76
2021/04/07 11:03:36;;;;;;;3.17;1.27;;;4.80;55.40;;;;;;6243445;23;20000;-79
2021/04/07 11:06:02;;;;;;;7.23;1.40;;;4.80;55.10;;;;;;6242625;23;20008;-77
2021/04/07 11:08:39;;;;;;;3.67;0.93;;;4.70;54.60;;;;;;6243093;23;20319;-77
2021/04/07 11:11:06;;;;;;;2.63;1.13;;;4.60;55.20;;;;;;6242919;23;20509;-78
2021/04/07 11:13:33;;;;;;;5.03;1.07;;;4.60;54.50;;;;;;6243217;23;20004;-78
2021/04/07 11:16:11;;;;;;;3.67;0.97;;;4.60;54.80;;;;;;6244560;23;20427;-79
2021/04/07 11:18:40;;;;;;;5.27;1.00;;;4.70;55.00;;;;;;6243446;23;20004;-79
2021/04/07 11:21:07;;;;;;;6.17;1.00;;;4.70;55.30;;;;;;6243275;23;20004;-78
2021/04/07 11:23:38;;;;;;;2.13;0.70;;;4.70;54.50;;;;;;6245224;23;20227;-77
2021/04/07 11:26:07;;;;;;;2.00;0.80;;;4.60;53.30;;;;;;6268673;22;20044;-78
2021/04/07 11:28:33;;;;;;;4.87;0.90;;;4.60;53.60;;;;;;6243605;23;20003;-78
2021/04/07 11:33:31;;;;;;;3.33;0.80;;;4.50;52.50;;;;;;6245917;23;20000;-76
2021/04/07 11:36:07;;;;;;;0.77;0.50;;;4.50;53.10;;;;;;6244136;22;20087;-78
2021/04/07 11:38:33;;;;;;;6.20;0.80;;;4.50;52.90;;;;;;6245665;23;19992;-78
2021/04/07 11:44:23;;;;;;;5.70;1.03;;;4.50;55.20;;;;;;6248905;23;20027;-77
2021/04/07 11:46:23;;;;;;;2.53;0.90;;;4.50;55.00;;;;;;6244528;23;20056;-76
2021/04/07 11:48:49;;;;;;;3.47;1.10;;;4.40;55.00;;;;;;6243401;23;20000;-79
2021/04/07 11:51:15;;;;;;;3.50;0.93;;;4.40;55.70;;;;;;6243242;23;20004;-78
2021/04/07 11:53:41;;;;;;;2.23;0.70;;;4.40;56.00;;;;;;6243540;23;20031;-77
2021/04/07 11:56:06;;;;;;;4.63;1.07;;;4.40;56.20;;;;;;6241892;23;20012;-78
2021/04/07 11:58:33;;;;;;;3.17;0.90;;;4.30;56.80;;;;;;6243053;23;20448;-76
2021/04/07 12:01:00;;;;;;;2.97;1.10;;;4.30;57.80;;;;;;6242295;23;20012;-76
2021/04/07 12:03:26;;;;;;;6.50;1.33;;;4.20;59.50;;;;;;6242723;23;20015;-77
2021/04/07 12:05:52;;;;;;;6.43;1.47;;;4.20;60.70;;;;;;6243596;23;20004;-75
2021/04/07 12:08:17;;;;;;;3.30;0.97;;;4.10;61.30;;;;;;6244799;23;19996;-78
2021/04/07 12:10:43;;;;;;;4.73;1.77;;;4.00;62.50;;;;;;6268593;22;19996;-75
2021/04/07 12:13:09;;;;;;;8.80;1.20;;;4.10;62.80;;;;;;6267616;22;20004;-75
2021/04/07 12:15:35;;;;;;;3.07;1.20;;;4.20;63.10;;;;;;6243830;23;20370;-76
2021/04/07 12:18:01;;;;;;;5.53;1.30;;;4.30;63.00;;;;;;6243255;23;19992;-77
2021/04/07 12:20:26;;;;;;;3.43;1.13;;;4.40;62.50;;;;;;6241498;23;20031;-75
2021/04/07 12:22:53;;;;;;;3.33;0.93;;;4.40;61.70;;;;;;6243918;23;20420;-76
2021/04/07 12:25:19;;;;;;;3.60;1.20;;;4.30;62.10;;;;;;6242629;23;20032;-77
2021/04/07 12:27:44;;;;;;;4.03;0.90;;;4.30;60.90;;;;;;6243333;23;20013;-77
2021/04/07 12:30:11;;;;;;;3.70;1.00;;;4.40;59.90;;;;;;6242472;23;20007;-76
2021/04/07 12:32:36;;;;;;;2.40;0.97;;;4.40;58.00;;;;;;6242971;23;20082;-77
2021/04/07 12:35:06;;;;;;;3.23;1.17;;;4.30;57.60;;;;;;6267736;22;20466;-75
2021/04/07 12:37:33;;;;;;;4.27;0.97;;;4.30;59.30;;;;;;6243438;23;20012;-74
2021/04/07 12:39:59;;;;;;;3.37;0.90;;;4.40;58.80;;;;;;6242687;23;20007;-78
2021/04/07 12:42:27;;;;;;;2.83;0.73;;;4.40;58.40;;;;;;6269036;22;20008;-77
2021/04/07 12:44:53;;;;;;;4.23;1.23;;;4.20;58.20;;;;;;6243152;23;20015;-76
2021/04/07 12:47:19;;;;;;;1.10;0.80;;;4.20;59.60;;;;;;6243157;23;20012;-74
2021/04/07 12:49:45;;;;;;;3.20;0.70;;;4.20;59.60;;;;;;6268163;22;20377;-74
2021/04/07 12:52:10;;;;;;;2.97;1.10;;;4.10;59.90;;;;;;6241721;23;20008;-75
2021/04/07 12:54:36;;;;;;;1.97;0.80;;;4.10;60.30;;;;;;6244506;23;20407;-74
2021/04/07 12:57:08;;;;;;;2.50;1.00;;;4.00;59.60;;;;;;6241848;23;20424;-75
2021/04/07 12:59:34;;;;;;;1.87;0.83;;;4.00;60.60;;;;;;6242780;23;20061;-74
2021/04/07 13:02:00;;;;;;;2.00;1.00;;;4.10;61.00;;;;;;6242743;23;20036;-75
2021/04/07 13:04:25;;;;;;;3.90;1.00;;;4.20;60.40;;;;;;6243443;23;20346;-76
2021/04/07 13:06:51;;;;;;;2.83;1.03;;;4.10;61.20;;;;;;6246593;23;20462;-74
2021/04/07 13:09:19;;;;;;;2.10;1.20;;;4.20;63.20;;;;;;6246070;23;20027;-74